Time;durP1;ratioP1;P1;durP2;ratioP2;P2;SDS_P1;SDS_P2;PMS_P1;PMS_P2;Temp;Humidity;BMP_temperature;BMP_pressure;BME280_temperature;BME280_humidity;BME280_pressure;Samples;Min_cycle;Max_cycle;Signal;HPM_P1;HPM_P2
2021/03/29 00:00:23;;;;;;;9.23;4.43;;;;;;;6.92;69.26;97344.63;1039074;28;20022;-71
2021/03/29 00:00:53;;;;;;;6.80;4.00;;;;;;;6.90;69.99;97346.66;1031611;28;20448;-71
2021/03/29 00:01:24;;;;;;;9.33;4.40;;;;;;;6.93;69.64;97340.94;1033434;28;20029;-71
2021/03/29 00:01:55;;;;;;;12.70;4.37;;;;;;;6.92;69.89;97342.78;1035092;28;20024;-71
2021/03/29 00:02:26;;;;;;;10.02;4.07;;;;;;;6.91;69.74;97341.16;1029428;28;20089;-72
2021/03/29 00:02:56;;;;;;;11.97;4.37;;;;;;;6.90;69.85;97338.69;1028782;28;20042;-72
2021/03/29 00:03:27;;;;;;;10.30;4.17;;;;;;;6.89;70.20;97339.72;1037994;28;20018;-71
2021/03/29 00:03:58;;;;;;;11.43;4.77;;;;;;;6.89;70.11;97343.22;1036143;28;20116;-72
2021/03/29 00:04:28;;;;;;;9.70;4.70;;;;;;;6.87;70.20;97339.16;1040181;28;20492;-72
2021/03/29 00:04:59;;;;;;;8.20;3.80;;;;;;;6.88;70.05;97341.59;1041023;28;20064;-73
2021/03/29 00:05:31;;;;;;;9.30;4.33;;;;;;;6.89;70.04;97342.38;1039695;28;20025;-71
2021/03/29 00:06:01;;;;;;;9.00;4.47;;;;;;;6.86;70.48;97335.69;1036077;28;20490;-71
2021/03/29 00:06:31;;;;;;;9.70;4.73;;;;;;;6.87;70.16;97336.50;1039860;28;20025;-71
2021/03/29 00:07:02;;;;;;;10.77;4.70;;;;;;;6.87;70.37;97336.50;1032895;28;20427;-72
2021/03/29 00:07:32;;;;;;;7.30;4.37;;;;;;;6.85;70.61;97341.19;1031710;28;20018;-71
2021/03/29 00:08:09;;;;;;;8.37;4.50;;;;;;;6.80;70.68;97335.69;1027692;28;20098;-72
2021/03/29 00:08:39;;;;;;;8.80;4.57;;;;;;;6.78;70.71;97343.88;1032547;28;20018;-71
2021/03/29 00:09:10;;;;;;;9.47;4.57;;;;;;;6.77;70.76;97345.72;1034802;28;20096;-71
2021/03/29 00:09:40;;;;;;;7.53;4.43;;;;;;;6.72;71.50;97342.09;1036656;28;20076;-71
2021/03/29 00:10:11;;;;;;;11.83;4.60;;;;;;;6.72;71.27;97342.91;1031618;28;20041;-71
2021/03/29 00:10:43;;;;;;;11.60;4.57;;;;;;;6.72;71.15;97347.41;1035752;28;20132;-71
2021/03/29 00:11:13;;;;;;;9.63;4.30;;;;;;;6.68;71.38;97340.88;1028722;28;20066;-70
2021/03/29 00:11:43;;;;;;;9.27;4.33;;;;;;;6.69;71.33;97345.16;1028208;28;20030;-72
2021/03/29 00:12:14;;;;;;;11.07;4.40;;;;;;;6.68;71.34;97341.69;1027961;28;20050;-72
2021/03/29 00:12:45;;;;;;;8.07;4.30;;;;;;;6.69;71.77;97347.81;1027753;28;20022;-72
2021/03/29 00:13:16;;;;;;;14.45;4.35;;;;;;;6.70;71.70;97342.28;1035317;28;20110;-71
2021/03/29 00:13:46;;;;;;;10.27;4.10;;;;;;;6.61;72.19;97338.25;1036176;28;20580;-71
2021/03/29 00:14:16;;;;;;;9.20;4.30;;;;;;;6.65;71.94;97342.09;1039811;28;20021;-70
2021/03/29 00:14:47;;;;;;;8.27;4.07;;;;;;;6.66;72.06;97340.28;1033584;28;20022;-73
2021/03/29 00:15:20;;;;;;;11.40;4.03;;;;;;;6.67;71.85;97341.91;1033963;28;20034;-71
2021/03/29 00:15:51;;;;;;;9.40;4.32;;;;;;;6.61;72.18;97346.22;1027708;28;20033;-72
2021/03/29 00:16:22;;;;;;;7.53;3.90;;;;;;;6.63;71.85;97338.03;1035492;28;20033;-72
2021/03/29 00:16:52;;;;;;;8.93;4.60;;;;;;;6.63;72.15;97340.69;1031812;28;20105;-72
2021/03/29 00:17:22;;;;;;;9.80;4.47;;;;;;;6.60;72.27;97336.59;1031729;28;20475;-71
2021/03/29 00:17:53;;;;;;;9.40;4.30;;;;;;;6.59;72.39;97339.47;1035381;28;20037;-70
2021/03/29 00:18:23;;;;;;;10.73;4.67;;;;;;;6.61;72.13;97340.91;1027466;28;20527;-71
2021/03/29 00:18:54;;;;;;;10.30;4.00;;;;;;;6.58;72.31;97346.63;1035606;28;20424;-71
2021/03/29 00:19:28;;;;;;;8.03;4.20;;;;;;;6.55;72.45;97333.75;1035214;28;20034;-71
2021/03/29 00:19:58;;;;;;;9.70;4.38;;;;;;;6.48;72.89;97341.78;1036690;28;20026;-70
2021/03/29 00:20:29;;;;;;;10.23;3.90;;;;;;;6.49;72.89;97345.25;1043772;28;20056;-71
2021/03/29 00:21:02;;;;;;;8.88;4.10;;;;;;;6.47;72.56;97344.66;1042580;28;20051;-70
2021/03/29 00:21:34;;;;;;;8.00;3.88;;;;;;;6.48;73.02;97338.31;1036309;28;20553;-70
2021/03/29 00:22:04;;;;;;;9.32;4.43;;;;;;;6.45;73.23;97344.88;1031644;28;20014;-72
2021/03/29 00:22:35;;;;;;;8.10;4.30;;;;;;;6.46;72.94;97335.88;1032191;28;20022;-72
2021/03/29 00:23:05;;;;;;;7.23;3.80;;;;;;;6.51;72.95;97340.56;1034125;28;20077;-71
2021/03/29 00:23:36;;;;;;;7.93;4.13;;;;;;;6.50;72.95;97342.41;1032943;28;20034;-71
2021/03/29 00:24:07;;;;;;;10.00;4.37;;;;;;;6.52;72.73;97342.19;1039538;28;20049;-71
2021/03/29 00:24:37;;;;;;;8.10;4.47;;;;;;;6.51;72.90;97343.22;1035642;28;20046;-71
2021/03/29 00:25:11;;;;;;;10.13;4.80;;;;;;;6.48;73.07;97348.94;1037353;28;20025;-71
2021/03/29 00:25:42;;;;;;;10.85;4.25;;;;;;;6.49;72.84;97345.25;1032151;28;20500;-71
2021/03/29 00:26:12;;;;;;;12.57;4.93;;;;;;;6.49;72.70;97345.25;1028023;28;20031;-71
2021/03/29 00:26:43;;;;;;;8.50;3.90;;;;;;;6.52;72.52;97339.50;1028107;28;20074;-71
2021/03/29 00:27:14;;;;;;;7.30;3.70;;;;;;;6.51;73.09;97341.38;1030693;28;20107;-71
2021/03/29 00:27:44;;;;;;;6.70;3.85;;;;;;;6.50;72.70;97344.25;1035902;28;20026;-69
2021/03/29 00:28:15;;;;;;;10.23;4.30;;;;;;;6.48;72.33;97341.78;1035850;28;20014;-71
2021/03/29 00:28:45;;;;;;;8.20;4.43;;;;;;;6.49;73.26;97347.91;1039637;28;20479;-71
2021/03/29 00:29:15;;;;;;;9.83;4.20;;;;;;;6.50;73.06;97342.41;1036224;28;20490;-71
2021/03/29 00:29:46;;;;;;;10.97;4.63;;;;;;;6.52;72.95;97342.19;1031551;28;20034;-71
2021/03/29 00:30:19;;;;;;;7.50;4.13;;;;;;;6.53;72.78;97343.81;1031686;28;20025;-71
2021/03/29 00:30:50;;;;;;;8.82;3.90;;;;;;;6.50;73.01;97347.72;1031523;28;20022;-71
2021/03/29 00:31:20;;;;;;;9.80;4.47;;;;;;;6.50;72.51;97352.22;1028036;28;20026;-71
2021/03/29 00:31:51;;;;;;;7.43;4.10;;;;;;;6.51;72.80;97340.56;1026502;28;20018;-71
2021/03/29 00:32:21;;;;;;;7.93;4.20;;;;;;;6.50;72.96;97347.72;1024421;28;20027;-71
2021/03/29 00:32:52;;;;;;;8.77;4.00;;;;;;;6.52;72.77;97344.84;1028307;28;20465;-71
2021/03/29 00:33:23;;;;;;;11.17;3.90;;;;;;;6.48;73.27;97348.94;1032303;28;20101;-71
2021/03/29 00:33:53;;;;;;;8.98;4.63;;;;;;;6.47;73.42;97347.31;1032383;28;20467;-71
2021/03/29 00:34:24;;;;;;;9.90;4.33;;;;;;;6.48;73.43;97349.75;1032384;28;20019;-71
2021/03/29 00:34:54;;;;;;;8.67;4.20;;;;;;;6.46;73.34;97346.50;1032869;28;20109;-70
2021/03/29 00:35:25;;;;;;;8.30;4.23;;;;;;;6.47;73.26;97342.81;1036540;28;20018;-71
2021/03/29 00:35:56;;;;;;;7.97;4.00;;;;;;;6.50;73.15;97344.25;1036313;28;20014;-71
2021/03/29 00:36:26;;;;;;;8.83;4.20;;;;;;;6.48;73.19;97347.09;1032333;28;20019;-71
2021/03/29 00:36:56;;;;;;;9.33;4.10;;;;;;;6.48;73.43;97346.28;1032433;28;20011;-71
2021/03/29 00:37:27;;;;;;;8.43;4.00;;;;;;;6.48;73.44;97355.06;1032535;28;20006;-71
2021/03/29 00:37:57;;;;;;;8.43;4.13;;;;;;;6.49;73.27;97342.59;1036667;28;20021;-71
2021/03/29 00:38:28;;;;;;;7.20;4.20;;;;;;;6.49;72.94;97342.59;1036775;28;20053;-72
2021/03/29 00:38:58;;;;;;;10.03;4.00;;;;;;;6.48;73.27;97348.94;1040575;28;20025;-71
2021/03/29 00:39:29;;;;;;;7.90;4.00;;;;;;;6.46;73.21;97343.03;1044580;28;20488;-70
2021/03/29 00:39:59;;;;;;;10.67;4.40;;;;;;;6.43;73.40;97351.41;1040572;28;20013;-72
2021/03/29 00:40:30;;;;;;;9.70;4.10;;;;;;;6.47;73.08;97347.31;1036434;28;20010;-70
2021/03/29 00:41:04;;;;;;;8.00;4.37;;;;;;;6.46;73.58;97343.84;1032475;28;20015;-71
2021/03/29 00:41:35;;;;;;;10.52;4.35;;;;;;;6.44;73.52;97342.41;1032388;28;20464;-71
2021/03/29 00:42:05;;;;;;;6.90;3.73;;;;;;;6.45;73.42;97336.09;1032166;28;20110;-72
2021/03/29 00:42:35;;;;;;;7.20;4.13;;;;;;;6.42;73.86;97345.28;1033716;28;20432;-71
2021/03/29 00:43:15;;;;;;;11.53;4.23;;;;;;;6.44;73.81;97342.41;1030854;28;20069;-72
2021/03/29 00:43:45;;;;;;;9.65;4.25;;;;;;;6.42;73.59;97342.63;1038965;28;20018;-72
2021/03/29 00:44:16;;;;;;;10.33;4.00;;;;;;;6.43;73.73;97352.22;1039195;28;20022;-72
2021/03/29 00:44:46;;;;;;;11.27;3.90;;;;;;;6.44;73.88;97347.72;1035386;28;20026;-72
2021/03/29 00:45:18;;;;;;;8.60;3.97;;;;;;;6.43;73.89;97346.91;1040301;28;20414;-70
2021/03/29 00:45:49;;;;;;;10.48;4.45;;;;;;;6.44;73.57;97343.22;1040787;28;20037;-71
2021/03/29 00:46:19;;;;;;;7.03;4.00;;;;;;;6.45;74.05;97341.41;1036779;28;20489;-71
2021/03/29 00:46:50;;;;;;;8.10;4.20;;;;;;;6.43;73.76;97348.75;1044325;28;20025;-71
2021/03/29 00:47:21;;;;;;;8.90;4.23;;;;;;;6.43;73.85;97340.78;1040401;28;20017;-71
2021/03/29 00:47:52;;;;;;;12.88;3.95;;;;;;;6.39;74.15;97345.69;1036417;28;20632;-70
2021/03/29 00:48:23;;;;;;;10.25;3.97;;;;;;;6.38;74.28;97343.25;1040425;28;20021;-70
2021/03/29 00:48:54;;;;;;;9.88;4.55;;;;;;;6.38;74.37;97346.72;1036620;28;20018;-70
2021/03/29 00:49:25;;;;;;;10.73;4.17;;;;;;;6.38;74.25;97345.91;1036208;28;20026;-71
2021/03/29 00:49:55;;;;;;;10.63;4.50;;;;;;;6.39;74.41;97347.53;1033021;28;20022;-71
2021/03/29 00:50:45;;;;;;;7.03;3.80;;;;;;;6.35;74.72;97349.00;1028363;28;20018;-71
2021/03/29 00:51:17;;;;;;;9.52;4.00;;;;;;;6.35;74.52;97347.16;1032019;28;20101;-71
2021/03/29 00:51:48;;;;;;;10.85;4.82;;;;;;;6.36;74.67;97340.81;1040165;28;20013;-70
2021/03/29 00:52:18;;;;;;;7.30;4.07;;;;;;;6.35;74.43;97354.31;1043589;28;20032;-71
2021/03/29 00:52:49;;;;;;;8.03;3.90;;;;;;;6.30;74.88;97344.31;1035924;28;20132;-71
2021/03/29 00:53:19;;;;;;;8.60;4.20;;;;;;;6.31;74.86;97340.63;1028039;28;20015;-71
2021/03/29 00:54:10;;;;;;;8.17;4.50;;;;;;;6.25;75.23;97350.25;1028320;28;20011;-71
2021/03/29 00:54:40;;;;;;;;;;;;;;;6.22;75.21;97345.34;1038021;28;20052;-71
2021/03/29 00:55:11;;;;;;;9.23;4.30;;;;;;;6.25;75.12;97350.25;1041926;28;19916;-71
2021/03/29 00:55:42;;;;;;;8.20;4.10;;;;;;;6.24;75.12;97345.13;1040181;28;20539;-70
2021/03/29 00:56:12;;;;;;;9.75;4.18;;;;;;;6.22;75.33;97350.66;1036000;28;20036;-71
2021/03/29 00:56:43;;;;;;;7.97;3.77;;;;;;;6.23;75.45;97349.63;1036398;28;20093;-71
2021/03/29 00:57:13;;;;;;;8.37;4.20;;;;;;;6.21;75.39;97348.22;1036575;28;20177;-71
2021/03/29 00:57:44;;;;;;;8.40;4.00;;;;;;;6.21;75.37;97350.88;1036589;28;20093;-72
2021/03/29 00:58:15;;;;;;;10.73;4.30;;;;;;;6.22;75.52;97350.66;1036429;28;20018;-71
2021/03/29 00:58:46;;;;;;;7.75;4.00;;;;;;;6.22;75.46;97355.16;1032386;28;20014;-71
2021/03/29 00:59:17;;;;;;;9.25;4.38;;;;;;;6.21;75.00;97349.03;1032814;28;20530;-71
2021/03/29 00:59:47;;;;;;;11.33;4.63;;;;;;;6.21;75.20;97351.69;1036813;28;20042;-71
2021/03/29 01:00:26;;;;;;;8.67;4.43;;;;;;;6.21;74.97;97346.38;1040691;28;20030;-72
2021/03/29 01:01:05;;;;;;;9.05;4.30;;;;;;;6.21;75.38;97350.88;1045904;28;20080;-71
2021/03/29 01:02:01;;;;;;;7.80;4.32;;;;;;;6.15;75.27;97343.75;1046311;28;20024;-71
2021/03/29 01:02:32;;;;;;;10.73;4.25;;;;;;;6.17;75.41;97336.38;1039374;28;20445;-70
2021/03/29 01:03:13;;;;;;;9.13;4.20;;;;;;;6.16;75.31;97340.88;1032813;28;20023;-71
2021/03/29 01:03:46;;;;;;;9.15;4.25;;;;;;;6.13;75.15;97341.28;1036187;28;20486;-70
2021/03/29 01:04:17;;;;;;;9.90;4.40;;;;;;;6.18;75.39;97341.47;1032230;28;20026;-71
2021/03/29 01:04:47;;;;;;;9.33;4.00;;;;;;;6.18;75.23;97346.78;1036237;28;20538;-71
2021/03/29 01:05:19;;;;;;;8.40;4.43;;;;;;;6.20;75.49;97335.97;1036242;28;20471;-71
2021/03/29 01:05:58;;;;;;;13.52;4.30;;;;;;;6.20;75.61;97346.59;1036648;28;20101;-72
2021/03/29 01:06:30;;;;;;;7.50;4.25;;;;;;;6.19;75.59;97347.59;1040446;28;20075;-72
2021/03/29 01:07:01;;;;;;;8.32;4.35;;;;;;;6.20;75.70;97335.97;1043616;28;20507;-72
2021/03/29 01:07:32;;;;;;;7.50;4.13;;;;;;;6.19;75.29;97337.81;1044562;28;20078;-71
2021/03/29 01:08:02;;;;;;;9.23;3.93;;;;;;;6.20;75.56;97339.44;1044564;28;20017;-69
2021/03/29 01:08:34;;;;;;;9.20;3.70;;;;;;;6.21;75.41;97338.41;1040218;28;20511;-72
2021/03/29 01:09:17;;;;;;;9.60;4.57;;;;;;;6.21;75.66;97340.25;1040771;28;20505;-70
2021/03/29 01:09:48;;;;;;;8.57;4.13;;;;;;;6.20;75.63;97343.94;1042518;28;20048;-70
2021/03/29 01:10:18;;;;;;;9.37;4.43;;;;;;;6.21;75.76;97348.22;1038324;28;20562;-70
2021/03/29 01:10:48;;;;;;;8.10;3.83;;;;;;;6.22;75.48;97342.69;1034257;28;20050;-70
2021/03/29 01:11:26;;;;;;;10.27;3.93;;;;;;;6.23;75.51;97344.31;1036390;28;20022;-70
2021/03/29 01:11:58;;;;;;;7.88;4.10;;;;;;;6.24;75.69;97350.44;1036239;28;20063;-71
2021/03/29 01:12:28;;;;;;;11.68;4.53;;;;;;;6.18;75.54;97335.34;1040482;28;20026;-71
2021/03/29 01:13:02;;;;;;;8.70;4.40;;;;;;;6.18;75.94;97338.81;1036429;28;20017;-70
2021/03/29 01:13:33;;;;;;;9.32;4.30;;;;;;;6.21;75.76;97345.56;1038218;28;20024;-70
2021/03/29 01:14:09;;;;;;;9.65;4.47;;;;;;;6.21;75.76;97341.06;1041042;28;20017;-71
2021/03/29 01:14:40;;;;;;;7.40;4.10;;;;;;;6.23;75.70;97344.31;1041959;28;20025;-70
2021/03/29 01:15:13;;;;;;;9.10;4.13;;;;;;;6.25;75.71;97344.13;1040484;28;20067;-70
2021/03/29 01:15:44;;;;;;;9.52;4.70;;;;;;;6.23;75.33;97339.00;1040387;28;20009;-70
2021/03/29 01:16:15;;;;;;;7.60;4.00;;;;;;;6.24;75.45;97342.47;1037108;28;20022;-70
2021/03/29 01:16:56;;;;;;;8.27;4.40;;;;;;;6.24;75.42;97345.97;1032362;28;20530;-71
2021/03/29 01:17:29;;;;;;;8.23;4.07;;;;;;;6.29;75.34;97341.84;1029616;28;20022;-70
2021/03/29 01:18:00;;;;;;;8.13;4.35;;;;;;;6.28;75.46;97345.53;1032280;28;20026;-71
2021/03/29 01:18:30;;;;;;;8.98;4.25;;;;;;;6.28;75.56;97345.53;1034109;28;20028;-71
2021/03/29 01:19:01;;;;;;;14.90;4.97;;;;;;;6.27;75.68;97341.25;1028853;28;20058;-70
2021/03/29 01:19:41;;;;;;;7.97;4.23;;;;;;;6.27;75.46;97342.06;1032746;28;20403;-70
2021/03/29 01:20:29;;;;;;;12.15;5.00;;;;;;;6.29;75.52;97341.84;1040275;28;20021;-71
2021/03/29 01:21:20;;;;;;;9.57;4.45;;;;;;;6.29;75.51;97340.00;1040118;28;20035;-70
2021/03/29 01:21:57;;;;;;;9.15;4.50;;;;;;;6.28;75.83;97343.69;1044394;28;20033;-70
2021/03/29 01:22:32;;;;;;;11.90;4.35;;;;;;;6.27;75.70;97342.06;1036333;28;20053;-70
2021/03/29 01:23:02;;;;;;;9.52;4.75;;;;;;;6.23;75.45;97346.97;1040209;28;20056;-70
2021/03/29 01:23:33;;;;;;;11.40;4.93;;;;;;;6.26;75.57;97345.75;1036307;28;20029;-71
2021/03/29 01:24:10;;;;;;;12.10;4.77;;;;;;;6.25;75.78;97344.94;1029820;28;20151;-71
2021/03/29 01:24:56;;;;;;;12.82;4.57;;;;;;;6.24;75.58;97345.13;1032107;28;20455;-71
2021/03/29 01:25:31;;;;;;;7.60;4.28;;;;;;;6.21;75.88;97340.25;1035078;28;20028;-71
2021/03/29 01:26:06;;;;;;;12.07;4.82;;;;;;;6.23;75.70;97346.16;1043606;28;20355;-71
2021/03/29 01:26:44;;;;;;;7.63;4.20;;;;;;;6.21;75.75;97349.03;1040383;28;20022;-72
2021/03/29 01:27:17;;;;;;;9.93;4.22;;;;;;;6.21;75.71;97346.38;1036359;28;20084;-72
2021/03/29 01:27:57;;;;;;;13.93;5.15;;;;;;;6.24;75.54;97350.44;1036422;28;20549;-71
2021/03/29 01:28:27;;;;;;;6.63;4.18;;;;;;;6.22;75.46;97340.03;1034552;28;20033;-71
2021/03/29 01:28:58;;;;;;;9.17;4.17;;;;;;;6.20;75.85;97338.63;1033921;28;20062;-70
2021/03/29 01:29:31;;;;;;;9.50;4.20;;;;;;;6.13;76.20;97343.13;1036340;28;20026;-71
2021/03/29 01:30:05;;;;;;;9.45;5.05;;;;;;;6.10;76.38;97341.72;1032640;28;20483;-70
2021/03/29 01:30:36;;;;;;;13.70;5.25;;;;;;;6.13;76.28;97345.78;1037183;28;20407;-70
2021/03/29 01:31:06;;;;;;;9.93;4.88;;;;;;;6.12;76.48;97349.47;1040463;28;20522;-71
2021/03/29 01:31:37;;;;;;;9.23;4.53;;;;;;;6.08;76.53;97345.59;1035999;28;20044;-71
2021/03/29 01:32:07;;;;;;;14.57;4.60;;;;;;;6.04;76.68;97347.84;1040148;28;20028;-71
2021/03/29 01:32:38;;;;;;;9.63;4.50;;;;;;;6.04;76.56;97354.97;1040318;28;20545;-71
2021/03/29 01:33:08;;;;;;;13.23;5.30;;;;;;;5.99;76.68;97345.00;1032211;28;20422;-70
2021/03/29 01:33:39;;;;;;;7.83;4.37;;;;;;;5.97;76.55;97347.03;1032312;28;20022;-70
2021/03/29 01:34:10;;;;;;;9.50;4.60;;;;;;;5.97;76.98;97355.00;1032259;28;20416;-71
2021/03/29 01:34:41;;;;;;;11.50;5.22;;;;;;;5.98;76.63;97344.16;1032673;28;20061;-72
2021/03/29 01:35:21;;;;;;;10.33;4.90;;;;;;;5.94;76.82;97350.94;1040669;28;20064;-71
2021/03/29 01:35:54;;;;;;;9.65;4.60;;;;;;;5.95;76.95;97351.75;1044431;28;20351;-72
2021/03/29 01:36:25;;;;;;;9.55;4.80;;;;;;;5.91;76.84;97346.03;1035962;28;20030;-71
2021/03/29 01:36:55;;;;;;;8.00;4.57;;;;;;;5.93;76.83;97351.94;1033789;28;20030;-71
2021/03/29 01:37:26;;;;;;;9.80;4.80;;;;;;;5.95;76.93;97354.41;1032316;28;20026;-71
2021/03/29 01:37:57;;;;;;;9.18;4.60;;;;;;;5.90;77.09;97347.03;1028740;28;20031;-71
2021/03/29 01:38:29;;;;;;;10.43;5.00;;;;;;;5.93;76.94;97353.78;1032163;28;20595;-71
2021/03/29 01:38:59;;;;;;;8.43;4.45;;;;;;;5.93;76.59;97349.28;1036492;28;20038;-71
2021/03/29 01:39:30;;;;;;;8.03;4.60;;;;;;;5.92;76.88;97345.00;1036572;28;20026;-72
2021/03/29 01:40:00;;;;;;;8.60;4.70;;;;;;;5.91;76.91;97348.69;1040280;28;20028;-70
2021/03/29 01:40:36;;;;;;;8.47;4.47;;;;;;;5.93;76.80;97351.94;1036061;28;20068;-71
2021/03/29 01:41:06;;;;;;;9.48;4.88;;;;;;;5.90;76.75;97351.53;1041208;28;20065;-70
2021/03/29 01:41:37;;;;;;;9.87;5.00;;;;;;;5.89;76.49;97350.72;1036039;28;20034;-72
2021/03/29 01:42:08;;;;;;;7.47;4.10;;;;;;;5.90;76.86;97347.03;1029110;28;20373;-70
2021/03/29 01:42:38;;;;;;;9.27;4.87;;;;;;;5.92;76.79;97352.97;1032051;28;20027;-70
2021/03/29 01:43:09;;;;;;;13.87;4.33;;;;;;;5.94;76.85;97350.13;1027948;28;20035;-71
2021/03/29 01:43:40;;;;;;;11.20;4.60;;;;;;;5.95;76.84;97351.75;1031941;28;20402;-71
2021/03/29 01:44:10;;;;;;;11.23;5.00;;;;;;;5.95;76.86;97352.56;1035973;28;20071;-70
2021/03/29 01:44:41;;;;;;;11.07;5.13;;;;;;;5.92;76.56;97352.16;1031738;28;20018;-71
2021/03/29 01:45:12;;;;;;;10.60;4.18;;;;;;;5.82;77.23;97349.06;1028192;28;20062;-71
2021/03/29 01:45:43;;;;;;;10.90;4.75;;;;;;;5.82;77.33;97355.19;1032376;28;20464;-71
2021/03/29 01:46:14;;;;;;;9.98;4.88;;;;;;;5.86;77.24;97351.13;1032648;28;20113;-70
2021/03/29 01:46:44;;;;;;;9.83;4.53;;;;;;;5.85;77.12;97353.97;1032475;28;20555;-71
2021/03/29 01:47:15;;;;;;;7.83;4.63;;;;;;;5.84;77.14;97350.50;1036246;28;20022;-71
2021/03/29 01:47:46;;;;;;;8.83;4.03;;;;;;;5.84;77.08;97357.66;1024370;28;20019;-71
2021/03/29 01:48:16;;;;;;;9.47;4.80;;;;;;;5.85;77.09;97352.13;1028099;28;20570;-71
2021/03/29 01:48:46;;;;;;;10.20;4.87;;;;;;;5.83;77.23;97354.16;1032141;28;20018;-71
2021/03/29 01:49:17;;;;;;;10.30;4.67;;;;;;;5.81;77.24;97350.09;1032474;28;20026;-71
2021/03/29 01:49:47;;;;;;;9.37;4.30;;;;;;;5.78;76.99;97355.81;1040259;28;20017;-71
2021/03/29 01:50:21;;;;;;;10.47;4.57;;;;;;;5.79;77.01;97349.50;1027974;28;20031;-71
2021/03/29 01:50:53;;;;;;;7.78;4.70;;;;;;;5.80;77.01;97353.78;1028736;28;20029;-71
2021/03/29 01:51:24;;;;;;;9.68;4.60;;;;;;;5.76;77.33;97348.06;1028167;28;20031;-71
2021/03/29 01:51:54;;;;;;;9.43;4.37;;;;;;;5.78;77.14;97353.97;1032185;28;20515;-71
2021/03/29 01:52:25;;;;;;;10.60;4.77;;;;;;;5.77;77.37;97360.31;1024258;29;20097;-69
2021/03/29 01:52:56;;;;;;;10.33;4.83;;;;;;;5.74;77.46;97353.59;1024194;29;20387;-70
2021/03/29 01:53:27;;;;;;;11.55;4.88;;;;;;;5.74;77.39;97350.94;1020491;28;20064;-70
2021/03/29 01:53:58;;;;;;;9.65;4.70;;;;;;;5.72;77.25;97350.31;1028660;28;20050;-70
2021/03/29 01:54:28;;;;;;;11.80;4.97;;;;;;;5.72;77.43;97345.00;1036586;28;20029;-69
2021/03/29 01:54:59;;;;;;;10.20;4.13;;;;;;;5.71;77.39;97348.69;1028382;28;20367;-70
2021/03/29 01:55:30;;;;;;;8.80;4.67;;;;;;;5.69;77.70;97355.22;1028175;28;20463;-70
2021/03/29 01:56:00;;;;;;;9.32;4.47;;;;;;;5.69;77.14;97355.22;1024098;29;20106;-71
2021/03/29 01:56:31;;;;;;;10.73;5.00;;;;;;;5.67;77.73;97352.75;1024699;28;20039;-70
2021/03/29 01:57:08;;;;;;;10.70;4.77;;;;;;;5.66;77.73;97351.13;1031172;28;20030;-70
2021/03/29 01:57:38;;;;;;;8.63;4.38;;;;;;;5.67;77.84;97351.94;1037280;28;20026;-70
2021/03/29 01:58:09;;;;;;;11.83;5.13;;;;;;;5.69;77.60;97352.56;1036251;28;20532;-70
2021/03/29 01:58:39;;;;;;;10.57;4.70;;;;;;;5.68;77.52;97351.75;1034065;28;20065;-70
2021/03/29 01:59:10;;;;;;;12.50;5.17;;;;;;;5.68;77.52;97353.56;1036200;28;20493;-70
2021/03/29 01:59:40;;;;;;;13.83;5.00;;;;;;;5.67;77.46;97355.41;1032254;28;20069;-71
2021/03/29 02:00:16;;;;;;;9.07;4.57;;;;;;;5.70;77.59;97354.19;1036343;28;20057;-71
2021/03/29 02:00:57;;;;;;;14.85;4.70;;;;;;;5.66;77.62;97356.44;1041186;28;20036;-71
2021/03/29 02:01:28;;;;;;;9.60;5.15;;;;;;;5.70;77.68;97357.66;1044533;28;20385;-71
2021/03/29 02:01:58;;;;;;;8.83;4.73;;;;;;;5.67;77.45;97351.94;1044444;28;20025;-71
2021/03/29 02:02:29;;;;;;;9.53;4.77;;;;;;;5.67;77.70;97357.25;1044497;28;20031;-71
2021/03/29 02:03:00;;;;;;;9.73;4.80;;;;;;;5.68;77.52;97357.06;1040189;28;20402;-71
2021/03/29 02:03:31;;;;;;;10.75;4.60;;;;;;;5.67;77.73;97352.75;1040348;28;20406;-71
2021/03/29 02:04:02;;;;;;;8.53;4.83;;;;;;;5.67;77.42;97354.59;1032279;28;20033;-71
2021/03/29 02:04:33;;;;;;;12.43;5.10;;;;;;;5.65;77.69;97354.00;1036523;28;20029;-70
2021/03/29 02:05:09;;;;;;;9.07;4.90;;;;;;;5.65;77.39;97354.81;1036164;28;20391;-71
2021/03/29 02:05:39;;;;;;;8.98;4.60;;;;;;;5.63;77.56;97358.69;1038033;28;20030;-70
2021/03/29 02:06:10;;;;;;;7.23;4.80;;;;;;;5.61;77.60;97350.13;1040242;28;20367;-70
2021/03/29 02:06:40;;;;;;;9.30;4.97;;;;;;;5.62;77.56;97351.75;1032936;28;20061;-71
2021/03/29 02:07:10;;;;;;;9.20;4.80;;;;;;;5.63;77.56;97356.03;1036233;28;20033;-70
2021/03/29 02:07:41;;;;;;;9.50;4.73;;;;;;;5.62;77.70;97351.75;1036298;28;20014;-70
2021/03/29 02:08:12;;;;;;;12.00;5.20;;;;;;;5.64;77.46;97355.84;1040263;28;20025;-71
2021/03/29 02:08:42;;;;;;;8.47;4.50;;;;;;;5.65;77.31;97359.31;1040278;28;20028;-71
2021/03/29 02:09:13;;;;;;;8.10;4.57;;;;;;;5.65;77.43;97359.31;1036185;28;20057;-70
2021/03/29 02:09:43;;;;;;;10.17;4.83;;;;;;;5.60;77.44;97351.16;1032084;28;20025;-70
2021/03/29 02:10:16;;;;;;;9.73;4.50;;;;;;;5.62;77.69;97354.41;1032245;28;20041;-71
2021/03/29 02:10:47;;;;;;;8.35;4.72;;;;;;;5.61;77.50;97350.94;1036863;28;20037;-72
2021/03/29 02:11:18;;;;;;;9.47;4.63;;;;;;;5.62;77.56;97357.88;1040290;28;20057;-71
2021/03/29 02:11:48;;;;;;;8.67;4.67;;;;;;;5.61;77.31;97350.13;1039950;28;20064;-71
2021/03/29 02:12:19;;;;;;;9.53;5.07;;;;;;;5.62;77.63;97357.06;1040128;28;20029;-71
2021/03/29 02:12:49;;;;;;;10.60;4.57;;;;;;;5.62;77.30;97349.91;1036108;28;20034;-71
2021/03/29 02:13:21;;;;;;;8.77;4.50;;;;;;;5.60;77.52;97356.44;1028034;28;20027;-71
2021/03/29 02:13:53;;;;;;;11.52;4.88;;;;;;;5.62;77.49;97352.56;1028141;28;20034;-72
2021/03/29 02:14:27;;;;;;;9.35;4.65;;;;;;;5.62;77.61;97357.06;1028500;28;20035;-71
2021/03/29 02:14:58;;;;;;;9.30;4.63;;;;;;;5.58;77.45;97355.81;1029868;28;20022;-70
2021/03/29 02:15:28;;;;;;;10.53;4.97;;;;;;;5.56;77.84;97357.88;1027998;28;20042;-71
2021/03/29 02:16:01;;;;;;;10.23;5.17;;;;;;;5.58;77.73;97354.00;1024694;28;20043;-70
2021/03/29 02:16:32;;;;;;;9.32;4.78;;;;;;;5.59;77.64;97350.34;1024856;28;20106;-71
2021/03/29 02:17:04;;;;;;;10.87;5.17;;;;;;;5.57;77.86;97355.00;1027863;28;20038;-70
2021/03/29 02:17:35;;;;;;;9.18;4.53;;;;;;;5.57;77.78;97356.84;1028752;28;20065;-71
2021/03/29 02:18:12;;;;;;;11.15;5.05;;;;;;;5.52;77.93;97354.81;1028410;28;20494;-71
2021/03/29 02:18:48;;;;;;;15.50;5.13;;;;;;;5.53;77.86;97351.16;1034467;28;20026;-69
2021/03/29 02:19:18;;;;;;;8.13;4.50;;;;;;;5.53;77.90;97351.16;1040131;28;20033;-71
2021/03/29 02:19:48;;;;;;;13.07;5.27;;;;;;;5.57;77.81;97356.84;1040257;28;20029;-73
2021/03/29 02:20:20;;;;;;;6.63;4.13;;;;;;;5.56;77.63;97350.72;1041303;28;20029;-71
2021/03/29 02:20:51;;;;;;;9.95;5.07;;;;;;;5.57;77.77;97360.31;1039848;28;20036;-73
2021/03/29 02:21:24;;;;;;;10.20;4.50;;;;;;;5.56;77.90;97357.88;1032132;28;20507;-71
2021/03/29 02:21:54;;;;;;;9.50;5.10;;;;;;;5.57;77.72;97357.66;1032008;28;20125;-71
2021/03/29 02:22:25;;;;;;;9.33;4.57;;;;;;;5.57;77.66;97348.91;1027908;28;20500;-71
2021/03/29 02:22:55;;;;;;;10.00;4.77;;;;;;;5.58;77.65;97358.47;1025075;28;20019;-70
2021/03/29 02:23:26;;;;;;;8.47;4.60;;;;;;;5.58;77.69;97355.81;1032359;28;20030;-71
2021/03/29 02:23:58;;;;;;;10.63;5.28;;;;;;;5.59;77.83;97355.63;1036229;28;20085;-71
2021/03/29 02:24:29;;;;;;;11.38;5.15;;;;;;;5.55;77.99;97361.56;1036439;28;20030;-71
2021/03/29 02:24:59;;;;;;;9.80;5.10;;;;;;;5.51;77.82;97355.03;1041885;28;20538;-71
2021/03/29 02:25:29;;;;;;;9.63;4.87;;;;;;;5.51;78.13;97361.13;1040189;28;20429;-71
2021/03/29 02:26:01;;;;;;;11.87;5.20;;;;;;;5.50;78.49;97358.69;1040205;28;20445;-70
2021/03/29 02:26:33;;;;;;;8.25;4.82;;;;;;;5.46;78.38;97359.09;1040435;28;20017;-71
2021/03/29 02:27:04;;;;;;;9.55;5.18;;;;;;;5.46;78.34;97363.59;1044311;28;20044;-72
2021/03/29 02:27:36;;;;;;;8.70;5.03;;;;;;;5.48;78.30;97362.38;1044370;28;20024;-71
2021/03/29 02:28:06;;;;;;;9.85;5.05;;;;;;;5.51;78.18;97352.38;1044415;28;20425;-71
2021/03/29 02:28:38;;;;;;;8.87;4.77;;;;;;;5.48;77.93;97359.72;1040147;28;20017;-70
2021/03/29 02:29:09;;;;;;;8.52;4.47;;;;;;;5.51;77.89;97355.84;1032459;28;20022;-70
2021/03/29 02:29:39;;;;;;;9.90;4.90;;;;;;;5.50;78.13;97359.50;1031785;28;20068;-70
2021/03/29 02:30:11;;;;;;;11.17;5.43;;;;;;;5.50;78.00;97358.69;1027876;28;20034;-71
2021/03/29 02:30:42;;;;;;;8.80;4.90;;;;;;;5.47;78.10;97362.56;1028128;28;20082;-71
2021/03/29 02:31:13;;;;;;;8.95;4.63;;;;;;;5.45;78.07;97362.78;1032712;28;20085;-70
2021/03/29 02:31:43;;;;;;;10.27;4.67;;;;;;;5.45;78.51;97362.78;1032133;28;20030;-71